createdAt,value
2023-05-21T00:01:48.675Z,14.66
2023-05-21T00:04:18.134Z,14.68
2023-05-21T00:06:46.124Z,14.71
2023-05-21T00:09:14.089Z,14.73
2023-05-21T00:11:42.031Z,14.76
2023-05-21T00:14:10.174Z,14.79
2023-05-21T00:16:38.389Z,14.80
2023-05-21T00:19:06.668Z,14.80
2023-05-21T00:21:34.523Z,14.78
2023-05-21T00:24:02.632Z,14.75
2023-05-21T00:26:30.610Z,14.71
2023-05-21T00:28:58.660Z,14.71
2023-05-21T00:31:27.021Z,14.70
2023-05-21T00:33:54.791Z,14.71
2023-05-21T00:36:24.272Z,14.71
2023-05-21T00:38:52.322Z,14.70
2023-05-21T00:41:20.416Z,14.67
2023-05-21T00:43:48.307Z,14.65
2023-05-21T00:46:19.782Z,14.61
2023-05-21T00:48:48.458Z,14.57
2023-05-21T00:51:18.597Z,14.54
2023-05-21T00:53:49.612Z,14.54
2023-05-21T00:56:17.698Z,14.56
2023-05-21T00:58:45.573Z,14.58
2023-05-21T01:01:14.205Z,14.57
2023-05-21T01:03:42.445Z,14.54
2023-05-21T01:06:11.414Z,14.51
2023-05-21T01:08:41.062Z,14.48
2023-05-21T01:11:09.965Z,14.48
2023-05-21T01:13:39.962Z,14.49
2023-05-21T01:16:09.345Z,14.50
2023-05-21T01:18:38.244Z,14.50
2023-05-21T01:21:07.760Z,14.44
2023-05-21T01:23:36.151Z,14.40
2023-05-21T01:26:04.007Z,14.35
2023-05-21T01:28:34.817Z,14.33
2023-05-21T01:31:16.996Z,14.31
2023-05-21T01:33:49.398Z,14.30
2023-05-21T01:36:26.956Z,14.31
2023-05-21T01:39:09.027Z,14.33
2023-05-21T01:41:39.213Z,14.35
2023-05-21T01:44:07.402Z,14.35
2023-05-21T01:46:36.801Z,14.38
2023-05-21T01:49:06.459Z,14.38
2023-05-21T01:51:35.000Z,14.34
2023-05-21T01:54:02.911Z,14.29
2023-05-21T01:56:34.124Z,14.25
2023-05-21T01:59:02.208Z,14.21
2023-05-21T02:01:30.509Z,14.18
2023-05-21T02:03:59.337Z,14.17
2023-05-21T02:06:27.304Z,14.16
2023-05-21T02:08:55.827Z,14.14
2023-05-21T02:11:24.111Z,14.12
2023-05-21T02:13:52.460Z,14.08
2023-05-21T02:16:22.460Z,14.03
2023-05-21T02:18:57.614Z,13.97
2023-05-21T02:21:25.794Z,13.94
2023-05-21T02:23:53.973Z,13.92
2023-05-21T02:26:23.063Z,13.92
2023-05-21T02:28:55.525Z,13.93
2023-05-21T02:31:23.722Z,13.91
2023-05-21T02:33:51.776Z,13.88
2023-05-21T02:36:19.716Z,13.87
2023-05-21T02:38:48.322Z,13.85
2023-05-21T02:41:16.130Z,13.85
2023-05-21T02:43:44.091Z,13.87
2023-05-21T02:46:12.097Z,13.88
2023-05-21T02:48:39.987Z,13.89
2023-05-21T02:51:07.956Z,13.88
2023-05-21T02:53:35.803Z,13.84
2023-05-21T02:56:04.047Z,13.82
2023-05-21T02:58:32.211Z,13.81
2023-05-21T03:01:00.416Z,13.84
2023-05-21T03:03:28.546Z,13.86
2023-05-21T03:05:56.581Z,13.89
2023-05-21T03:08:24.917Z,13.89
2023-05-21T03:10:52.912Z,13.87
2023-05-21T03:13:21.576Z,13.82
2023-05-21T03:15:49.929Z,13.78
2023-05-21T03:18:17.985Z,13.77
2023-05-21T03:20:45.762Z,13.77
2023-05-21T03:23:16.492Z,13.80
2023-05-21T03:25:46.198Z,13.79
2023-05-21T03:28:14.799Z,13.76
2023-05-21T03:30:46.595Z,13.74
2023-05-21T03:33:14.600Z,13.70
2023-05-21T03:35:42.523Z,13.66
2023-05-21T03:38:10.540Z,13.65
2023-05-21T03:40:38.408Z,13.66
2023-05-21T03:43:06.105Z,13.69
2023-05-21T03:45:34.272Z,13.72
2023-05-21T03:48:02.181Z,13.73
2023-05-21T03:50:30.045Z,13.74
2023-05-21T03:52:57.866Z,13.72
2023-05-21T03:55:29.560Z,13.71
2023-05-21T03:57:57.531Z,13.70
2023-05-21T04:00:25.536Z,13.72
2023-05-21T04:02:55.505Z,13.77
2023-05-21T04:05:23.628Z,13.83
2023-05-21T04:07:51.651Z,13.87
2023-05-21T04:10:19.508Z,13.90
2023-05-21T04:12:49.359Z,13.90
2023-05-21T04:15:18.721Z,13.89
2023-05-21T04:17:47.182Z,13.88
2023-05-21T04:20:17.107Z,13.92
2023-05-21T04:22:45.117Z,13.95
2023-05-21T04:25:13.062Z,14.00
2023-05-21T04:27:42.782Z,14.07
2023-05-21T04:30:11.424Z,14.12
2023-05-21T04:32:39.512Z,14.16
2023-05-21T04:35:07.864Z,14.20
2023-05-21T04:37:36.474Z,14.21
2023-05-21T04:40:04.855Z,14.23
2023-05-21T04:42:33.184Z,14.26
2023-05-21T04:45:01.387Z,14.32
2023-05-21T04:47:30.566Z,14.38
2023-05-21T04:50:02.630Z,14.47
2023-05-21T04:52:31.464Z,14.52
2023-05-21T04:54:59.293Z,14.54
2023-05-21T04:57:28.536Z,14.54
2023-05-21T04:59:58.036Z,14.54
2023-05-21T05:02:25.980Z,14.55
2023-05-21T05:04:54.051Z,14.57
2023-05-21T05:07:22.860Z,14.60
2023-05-21T05:09:50.797Z,14.63
2023-05-21T05:12:18.907Z,14.68
2023-05-21T05:14:47.123Z,14.71
2023-05-21T05:17:14.943Z,14.75
2023-05-21T05:19:42.959Z,14.81
2023-05-21T05:22:13.417Z,14.86
2023-05-21T05:24:42.048Z,14.88
2023-05-21T05:27:09.970Z,14.90
2023-05-21T05:29:38.231Z,14.93
2023-05-21T05:32:06.496Z,14.96
2023-05-21T05:34:34.583Z,15.00
2023-05-21T05:37:03.063Z,15.05
2023-05-21T05:39:30.944Z,15.11
2023-05-21T05:41:58.980Z,15.16
2023-05-21T05:44:27.051Z,15.19
2023-05-21T05:46:54.828Z,15.23
2023-05-21T05:49:23.050Z,15.29
2023-05-21T05:51:51.173Z,15.34
2023-05-21T05:54:19.671Z,15.40
2023-05-21T05:56:47.556Z,15.47
2023-05-21T05:59:16.594Z,15.54
2023-05-21T06:01:44.496Z,15.60
2023-05-21T06:04:12.427Z,15.68
2023-05-21T06:06:40.348Z,15.75
2023-05-21T06:09:08.504Z,15.82
2023-05-21T06:11:36.439Z,15.90
2023-05-21T06:14:04.482Z,15.97
2023-05-21T06:16:32.654Z,16.03
2023-05-21T06:19:01.032Z,16.07
2023-05-21T06:21:29.102Z,16.10
2023-05-21T06:23:56.982Z,16.14
2023-05-21T06:26:24.894Z,16.19
2023-05-21T06:28:53.012Z,16.24
2023-05-21T06:31:22.513Z,16.32
2023-05-21T06:33:50.713Z,16.41
2023-05-21T06:36:18.928Z,16.49
2023-05-21T06:38:48.155Z,16.58
2023-05-21T06:41:16.286Z,16.67
2023-05-21T06:43:44.149Z,16.74
2023-05-21T06:46:12.046Z,16.79
2023-05-21T06:48:39.935Z,16.85
2023-05-21T06:51:07.913Z,16.89
2023-05-21T06:53:35.808Z,16.96
2023-05-21T06:56:03.990Z,17.03
2023-05-21T06:58:31.782Z,17.13
2023-05-21T07:00:59.866Z,17.26
2023-05-21T07:03:28.041Z,17.41
2023-05-21T07:05:57.811Z,17.53
2023-05-21T07:08:25.719Z,17.63
2023-05-21T07:10:53.781Z,17.72
2023-05-21T07:13:22.224Z,17.77
2023-05-21T07:15:50.433Z,17.81
2023-05-21T07:18:19.269Z,17.86
2023-05-21T07:20:47.592Z,17.91
2023-05-21T07:23:15.850Z,17.97
2023-05-21T07:25:43.782Z,18.04
2023-05-21T07:28:11.722Z,18.15
2023-05-21T07:30:39.736Z,18.27
2023-05-21T07:33:08.165Z,18.35
2023-05-21T07:35:36.538Z,18.40
2023-05-21T07:38:04.982Z,18.47
2023-05-21T07:40:32.769Z,18.55
2023-05-21T07:43:01.154Z,18.59
2023-05-21T07:45:29.041Z,18.63
2023-05-21T07:47:56.901Z,18.68
2023-05-21T07:50:25.850Z,18.73
2023-05-21T07:52:53.979Z,18.79
2023-05-21T07:55:21.970Z,18.88
2023-05-21T07:57:52.540Z,18.98
2023-05-21T08:00:24.238Z,19.08
2023-05-21T08:02:52.637Z,19.17
2023-05-21T08:05:21.692Z,19.27
2023-05-21T08:07:49.833Z,19.37
2023-05-21T08:10:19.485Z,19.45
2023-05-21T08:12:47.534Z,19.55
2023-05-21T08:15:15.488Z,19.65
2023-05-21T08:17:43.573Z,19.71
2023-05-21T08:20:13.665Z,19.77
2023-05-21T08:22:41.633Z,19.84
2023-05-21T08:25:09.990Z,19.94
2023-05-21T08:27:38.345Z,20.01
2023-05-21T08:30:06.895Z,20.07
2023-05-21T08:32:34.807Z,20.15
2023-05-21T08:35:02.983Z,20.24
2023-05-21T08:37:30.983Z,20.34
2023-05-21T08:39:58.941Z,20.47
2023-05-21T08:42:37.049Z,20.61
2023-05-21T08:45:07.327Z,20.77
2023-05-21T08:47:37.301Z,20.87
2023-05-21T08:50:05.669Z,21.00
2023-05-21T08:52:33.571Z,21.09
2023-05-21T08:55:03.733Z,21.20
2023-05-21T08:57:31.997Z,21.28
2023-05-21T09:00:00.338Z,21.33
2023-05-21T09:02:30.890Z,21.40
2023-05-21T09:04:59.521Z,21.49
2023-05-21T09:07:29.346Z,21.55
2023-05-21T09:09:59.024Z,21.58
2023-05-21T09:12:28.298Z,21.64
2023-05-21T09:14:58.599Z,21.69
2023-05-21T09:17:26.428Z,21.76
2023-05-21T09:20:14.867Z,21.82
2023-05-21T09:22:50.092Z,21.89
2023-05-21T09:25:22.125Z,21.97
2023-05-21T09:27:49.917Z,22.03
2023-05-21T09:30:21.865Z,22.07
2023-05-21T09:32:57.645Z,22.15
2023-05-21T09:35:25.892Z,22.24
2023-05-21T09:37:54.158Z,22.29
2023-05-21T09:40:23.780Z,22.36
2023-05-21T09:42:55.435Z,22.42
2023-05-21T09:45:27.232Z,22.47
2023-05-21T09:47:56.450Z,22.51
2023-05-21T09:50:28.318Z,22.57
2023-05-21T09:52:56.448Z,22.62
2023-05-21T09:55:26.554Z,22.65
2023-05-21T09:57:54.961Z,22.72
2023-05-21T10:00:28.178Z,22.76
2023-05-21T10:03:01.673Z,22.80
2023-05-21T10:05:30.618Z,22.84
2023-05-21T10:08:03.633Z,22.88
2023-05-21T10:10:32.769Z,22.95
2023-05-21T10:13:07.381Z,23.02
2023-05-21T10:15:41.255Z,23.06
2023-05-21T10:18:10.548Z,23.13
2023-05-21T10:20:39.229Z,23.16
2023-05-21T10:23:07.949Z,23.17
2023-05-21T10:25:36.427Z,23.21
2023-05-21T10:28:04.837Z,23.26
2023-05-21T10:30:33.111Z,23.31
2023-05-21T10:33:02.396Z,23.34
2023-05-21T10:35:30.995Z,23.38
2023-05-21T10:37:59.394Z,23.40
2023-05-21T10:40:27.354Z,23.44
2023-05-21T10:43:14.862Z,23.52
2023-05-21T10:45:47.975Z,23.57
2023-05-21T10:49:06.864Z,23.60
2023-05-21T10:51:39.957Z,23.64
2023-05-21T10:54:26.740Z,23.69
2023-05-21T10:57:18.147Z,23.75
2023-05-21T10:59:47.562Z,23.79
2023-05-21T11:02:16.608Z,23.80
2023-05-21T11:04:45.437Z,23.82
2023-05-21T11:07:13.554Z,23.87
2023-05-21T11:09:42.028Z,23.91
2023-05-21T11:12:10.547Z,23.95
2023-05-21T11:14:40.363Z,23.99
2023-05-21T11:17:36.429Z,24.03
2023-05-21T11:20:08.126Z,24.08
2023-05-21T11:22:36.600Z,24.09
2023-05-21T11:25:05.262Z,24.12
2023-05-21T11:27:37.192Z,24.17
2023-05-21T11:30:09.577Z,24.19
2023-05-21T11:33:01.700Z,24.19
2023-05-21T11:35:29.763Z,24.22
2023-05-21T11:37:57.653Z,24.23
2023-05-21T11:40:26.710Z,24.25
2023-05-21T11:42:56.207Z,24.29
2023-05-21T11:45:30.847Z,24.33
2023-05-21T11:47:58.984Z,24.37
2023-05-21T11:50:27.496Z,24.39
2023-05-21T11:52:56.276Z,24.42
2023-05-21T11:55:26.145Z,24.43
2023-05-21T11:57:55.442Z,24.43
2023-05-21T12:00:23.585Z,24.43
2023-05-21T12:02:52.674Z,24.45
2023-05-21T12:05:21.620Z,24.45
2023-05-21T12:07:52.537Z,24.44
2023-05-21T12:10:22.346Z,24.43
2023-05-21T12:12:54.961Z,24.45
2023-05-21T12:15:26.595Z,24.47
2023-05-21T12:17:55.237Z,24.48
2023-05-21T12:20:23.907Z,24.51
2023-05-21T12:22:52.039Z,24.54
2023-05-21T12:25:21.142Z,24.55
2023-05-21T12:27:52.875Z,24.54
2023-05-21T12:30:21.329Z,24.53
2023-05-21T12:32:49.349Z,24.53
2023-05-21T12:35:24.301Z,24.54
2023-05-21T12:37:52.807Z,24.58
2023-05-21T12:40:21.187Z,24.61
2023-05-21T12:42:49.722Z,24.60
2023-05-21T12:45:18.976Z,24.60
2023-05-21T12:47:56.059Z,24.61
2023-05-21T12:50:24.597Z,24.65
2023-05-21T12:52:56.145Z,24.68
2023-05-21T12:55:26.481Z,24.69
2023-05-21T12:58:08.654Z,24.69
2023-05-21T13:00:37.395Z,24.68
2023-05-21T13:03:06.953Z,24.65
2023-05-21T13:05:35.864Z,24.65
2023-05-21T13:08:03.965Z,24.64
2023-05-21T13:10:31.839Z,24.62
2023-05-21T13:13:00.417Z,24.60
2023-05-21T13:15:28.411Z,24.58
2023-05-21T13:17:57.722Z,24.59
2023-05-21T13:20:27.853Z,24.58
2023-05-21T13:22:56.294Z,24.59
2023-05-21T13:25:32.738Z,24.61
2023-05-21T13:28:03.187Z,24.64
2023-05-21T13:30:31.483Z,24.67
2023-05-21T13:32:59.702Z,24.70
2023-05-21T13:35:27.484Z,24.75
2023-05-21T13:37:55.553Z,24.80
2023-05-21T13:40:24.189Z,24.83
2023-05-21T13:42:52.116Z,24.84
2023-05-21T13:45:20.960Z,24.86
2023-05-21T13:47:49.244Z,24.88
2023-05-21T13:50:17.356Z,24.90
2023-05-21T13:52:46.405Z,24.92
2023-05-21T13:55:16.199Z,24.92
2023-05-21T13:57:44.471Z,24.93
2023-05-21T14:00:15.383Z,24.91
2023-05-21T14:02:43.851Z,24.91
2023-05-21T14:05:13.196Z,24.90
2023-05-21T14:07:42.245Z,24.89
2023-05-21T14:10:11.124Z,24.88
2023-05-21T14:12:39.089Z,24.86
2023-05-21T14:15:07.818Z,24.84
2023-05-21T14:17:36.160Z,24.81
2023-05-21T14:20:04.160Z,24.79
2023-05-21T14:22:32.058Z,24.80
2023-05-21T14:25:00.048Z,24.81
2023-05-21T14:27:27.884Z,24.81
2023-05-21T14:29:55.661Z,24.80
2023-05-21T14:32:24.217Z,24.78
2023-05-21T14:34:52.126Z,24.76
2023-05-21T14:37:19.906Z,24.73
2023-05-21T14:39:48.084Z,24.71
2023-05-21T14:42:16.065Z,24.68
2023-05-21T14:44:43.961Z,24.66
2023-05-21T14:47:11.978Z,24.62
2023-05-21T14:49:39.777Z,24.58
2023-05-21T14:52:07.658Z,24.55
2023-05-21T14:54:36.474Z,24.53
2023-05-21T14:57:04.349Z,24.51
2023-05-21T14:59:32.212Z,24.49
2023-05-21T15:02:00.360Z,24.48
2023-05-21T15:04:28.435Z,24.48
2023-05-21T15:06:56.151Z,24.49
2023-05-21T15:09:24.500Z,24.50
2023-05-21T15:11:53.567Z,24.51
2023-05-21T15:14:21.554Z,24.52
2023-05-21T15:16:49.529Z,24.54
2023-05-21T15:19:17.628Z,24.56
2023-05-21T15:21:45.491Z,24.57
2023-05-21T15:24:13.254Z,24.59
2023-05-21T15:26:41.179Z,24.62
2023-05-21T15:29:09.191Z,24.64
2023-05-21T15:31:37.539Z,24.67
2023-05-21T15:34:05.664Z,24.70
2023-05-21T15:36:33.547Z,24.72
2023-05-21T15:39:03.799Z,24.73
2023-05-21T15:41:35.435Z,24.74
2023-05-21T15:44:03.539Z,24.75
2023-05-21T15:46:31.829Z,24.77
2023-05-21T15:48:59.950Z,24.80
2023-05-21T15:51:27.977Z,24.80
2023-05-21T15:53:56.104Z,24.79
2023-05-21T15:56:24.018Z,24.79
2023-05-21T15:58:52.219Z,24.77
2023-05-21T16:01:20.089Z,24.77
2023-05-21T16:03:48.184Z,24.78
2023-05-21T16:06:16.233Z,24.76
2023-05-21T16:08:44.234Z,24.72
2023-05-21T16:11:12.497Z,24.66
2023-05-21T16:13:41.230Z,24.61
2023-05-21T16:16:09.138Z,24.56
2023-05-21T16:18:37.852Z,24.52
2023-05-21T16:21:05.680Z,24.47
2023-05-21T16:23:34.476Z,24.44
2023-05-21T16:26:02.320Z,24.39
2023-05-21T16:28:30.312Z,24.34
2023-05-21T16:30:58.344Z,24.29
2023-05-21T16:33:26.444Z,24.24
2023-05-21T16:35:54.555Z,24.18
2023-05-21T16:38:22.614Z,24.13
2023-05-21T16:40:50.672Z,24.08
2023-05-21T16:43:18.471Z,24.04
2023-05-21T16:45:47.366Z,23.99
2023-05-21T16:48:16.423Z,23.95
2023-05-21T16:50:44.430Z,23.91
2023-05-21T16:53:12.897Z,23.85
2023-05-21T16:55:40.687Z,23.80
2023-05-21T16:58:09.600Z,23.75
2023-05-21T17:00:37.784Z,23.71
2023-05-21T17:03:05.899Z,23.66
2023-05-21T17:05:34.746Z,23.62
2023-05-21T17:08:02.999Z,23.58
2023-05-21T17:10:33.039Z,23.55
2023-05-21T17:13:09.640Z,23.50
2023-05-21T17:15:45.986Z,23.44
2023-05-21T17:18:14.131Z,23.39
2023-05-21T17:20:43.997Z,23.35
2023-05-21T17:23:12.442Z,23.31
2023-05-21T17:25:41.096Z,23.27
2023-05-21T17:28:09.532Z,23.23
2023-05-21T17:30:37.455Z,23.18
2023-05-21T17:33:06.746Z,23.15
2023-05-21T17:35:34.800Z,23.10
2023-05-21T17:38:03.173Z,23.05
2023-05-21T17:40:31.109Z,23.00
2023-05-21T17:42:59.167Z,22.97
2023-05-21T17:45:27.017Z,22.93
2023-05-21T17:47:56.141Z,22.88
2023-05-21T17:50:26.292Z,22.83
2023-05-21T17:52:54.194Z,22.77
2023-05-21T17:55:21.962Z,22.73
2023-05-21T17:57:49.871Z,22.68
2023-05-21T18:00:17.995Z,22.63
2023-05-21T18:02:46.029Z,22.59
2023-05-21T18:05:13.951Z,22.53
2023-05-21T18:07:41.812Z,22.49
2023-05-21T18:10:10.014Z,22.45
2023-05-21T18:12:38.009Z,22.39
2023-05-21T18:15:06.681Z,22.35
2023-05-21T18:17:34.996Z,22.30
2023-05-21T18:20:04.544Z,22.25
2023-05-21T18:22:32.648Z,22.20
2023-05-21T18:25:00.451Z,22.14
2023-05-21T18:27:28.586Z,22.08
2023-05-21T18:29:57.031Z,22.03
2023-05-21T18:32:25.208Z,21.98
2023-05-21T18:34:53.220Z,21.95
2023-05-21T18:37:21.855Z,21.90
2023-05-21T18:39:49.760Z,21.84
2023-05-21T18:42:17.706Z,21.81
2023-05-21T18:44:46.617Z,21.74
2023-05-21T18:47:14.505Z,21.69
2023-05-21T18:49:42.639Z,21.64
2023-05-21T18:52:10.867Z,21.58
2023-05-21T18:54:38.799Z,21.54
2023-05-21T18:57:06.634Z,21.48
2023-05-21T18:59:34.400Z,21.42
2023-05-21T19:02:03.572Z,21.38
2023-05-21T19:04:32.145Z,21.31
2023-05-21T19:07:00.533Z,21.24
2023-05-21T19:09:28.786Z,21.20
2023-05-21T19:11:57.558Z,21.14
2023-05-21T19:14:25.721Z,21.09
2023-05-21T19:16:53.487Z,21.03
2023-05-21T19:19:21.741Z,20.99
2023-05-21T19:21:49.767Z,20.95
2023-05-21T19:24:17.790Z,20.91
2023-05-21T19:26:45.816Z,20.86
2023-05-21T19:29:13.610Z,20.84
2023-05-21T19:31:42.958Z,20.80
2023-05-21T19:34:11.032Z,20.75
2023-05-21T19:36:52.372Z,20.70
2023-05-21T19:39:21.657Z,20.65
2023-05-21T19:41:49.554Z,20.61
2023-05-21T19:44:17.569Z,20.57
2023-05-21T19:46:45.523Z,20.52
2023-05-21T19:49:16.083Z,20.46
2023-05-21T19:51:44.223Z,20.44
2023-05-21T19:54:12.066Z,20.39
2023-05-21T19:56:40.204Z,20.35
2023-05-21T19:59:08.097Z,20.31
2023-05-21T20:01:39.432Z,20.25
2023-05-21T20:04:07.967Z,20.21
2023-05-21T20:06:36.259Z,20.16
2023-05-21T20:09:05.389Z,20.13
2023-05-21T20:11:33.778Z,20.07
2023-05-21T20:14:02.363Z,20.03
2023-05-21T20:16:30.651Z,19.97
2023-05-21T20:18:58.801Z,19.90
2023-05-21T20:21:26.917Z,19.83
2023-05-21T20:23:54.987Z,19.79
2023-05-21T20:26:23.376Z,19.73
2023-05-21T20:28:51.168Z,19.66
2023-05-21T20:31:19.246Z,19.58
2023-05-21T20:33:50.893Z,19.52
2023-05-21T20:36:21.396Z,19.45
2023-05-21T20:38:49.142Z,19.40
2023-05-21T20:41:17.350Z,19.34
2023-05-21T20:43:45.533Z,19.30
2023-05-21T20:46:13.762Z,19.25
2023-05-21T20:48:41.873Z,19.21
2023-05-21T20:51:09.979Z,19.16
2023-05-21T20:53:37.938Z,19.12
2023-05-21T20:56:08.639Z,19.10
2023-05-21T20:58:36.960Z,19.07
2023-05-21T21:01:04.964Z,19.02
2023-05-21T21:03:34.426Z,18.99
2023-05-21T21:06:03.368Z,18.95
2023-05-21T21:08:31.611Z,18.92
2023-05-21T21:10:59.712Z,18.90
2023-05-21T21:13:27.658Z,18.88
2023-05-21T21:15:55.812Z,18.87
2023-05-21T21:18:23.748Z,18.84
2023-05-21T21:20:51.597Z,18.83
2023-05-21T21:23:20.110Z,18.81
2023-05-21T21:25:48.050Z,18.78
2023-05-21T21:28:16.000Z,18.76
2023-05-21T21:30:44.481Z,18.74
2023-05-21T21:33:14.500Z,18.71
2023-05-21T21:35:42.745Z,18.69
2023-05-21T21:38:10.791Z,18.65
2023-05-21T21:40:38.935Z,18.62
2023-05-21T21:43:06.999Z,18.61
2023-05-21T21:45:34.861Z,18.58
2023-05-21T21:48:02.929Z,18.56
2023-05-21T21:50:30.800Z,18.52
2023-05-21T21:53:00.103Z,18.50
2023-05-21T21:55:29.841Z,18.49
2023-05-21T21:57:57.771Z,18.48
2023-05-21T22:00:26.877Z,18.48
2023-05-21T22:02:54.900Z,18.47
2023-05-21T22:05:22.732Z,18.45
2023-05-21T22:07:51.464Z,18.43
2023-05-21T22:10:19.543Z,18.41
2023-05-21T22:12:47.542Z,18.39
2023-05-21T22:15:20.500Z,18.37
2023-05-21T22:17:52.168Z,18.34
2023-05-21T22:20:22.211Z,18.32
2023-05-21T22:22:50.257Z,18.31
2023-05-21T22:25:18.193Z,18.28
2023-05-21T22:27:46.478Z,18.25
2023-05-21T22:30:14.429Z,18.21
2023-05-21T22:32:42.190Z,18.19
2023-05-21T22:35:10.355Z,18.17
2023-05-21T22:37:38.784Z,18.14
2023-05-21T22:40:07.102Z,18.12
2023-05-21T22:42:36.547Z,18.09
2023-05-21T22:45:04.957Z,18.06
2023-05-21T22:47:32.850Z,18.02
2023-05-21T22:50:01.653Z,17.98
2023-05-21T22:52:29.482Z,17.95
2023-05-21T22:54:58.950Z,17.92
2023-05-21T22:57:27.697Z,17.88
2023-05-21T22:59:56.088Z,17.85
2023-05-21T23:02:23.988Z,17.81
2023-05-21T23:04:52.236Z,17.78
2023-05-21T23:07:20.117Z,17.76
2023-05-21T23:09:48.013Z,17.74
2023-05-21T23:12:16.418Z,17.69
2023-05-21T23:14:44.337Z,17.66
2023-05-21T23:17:12.105Z,17.64
2023-05-21T23:19:40.402Z,17.62
2023-05-21T23:22:08.332Z,17.58
2023-05-21T23:24:36.489Z,17.55
2023-05-21T23:27:07.198Z,17.53
2023-05-21T23:29:35.203Z,17.50
2023-05-21T23:32:05.347Z,17.47
2023-05-21T23:34:33.544Z,17.43
2023-05-21T23:37:01.422Z,17.39
2023-05-21T23:39:29.279Z,17.35
2023-05-21T23:41:57.430Z,17.30
2023-05-21T23:44:25.466Z,17.25
2023-05-21T23:46:53.233Z,17.21
2023-05-21T23:49:21.321Z,17.18
2023-05-21T23:51:50.834Z,17.15
2023-05-21T23:54:18.908Z,17.12
2023-05-21T23:56:47.044Z,17.10
2023-05-21T23:59:16.248Z,17.08
